This is the latest recevied weather packets stored in our database for station/object EA4IAJ-12. If no packets are shown the sender has not sent any weather packets the latest 10 day(s).
| Time | Temp. | Humidity | Pressure | Rain* | Wind** | Luminosity | Snow |
|---|---|---|---|---|---|---|---|
| 1787407574 | 36.67° C | 33% | 1053.8 hPa | - | - | - | - |
| 1787406673 | 35° C | 33% | 1047.5 hPa | - | - | - | - |
| 1787405773 | 34.44° C | 33% | 1046 hPa | - | - | - | - |
| 1787404872 | 33.89° C | 33% | 1043 hPa | - | - | - | - |
| 1787403971 | 36.67° C | 35% | 1056.9 hPa | - | - | - | - |
| 1787403071 | 36.67° C | 36% | 1056.3 hPa | - | - | - | - |
| 1787402170 | 36.11° C | 37% | 1056.1 hPa | - | - | - | - |
| 1787401270 | 34.44° C | 37% | 1048.2 hPa | - | - | - | - |
| 1787400369 | 36.11° C | 39% | 1055.5 hPa | - | - | - | - |
| 1787399469 | 34.44° C | 40% | 1049.5 hPa | - | - | - | - |
| 1787398568 | 35° C | 41% | 1053.8 hPa | - | - | - | - |
| 1787397668 | 32.22° C | 41% | 1042.7 hPa | - | - | - | - |
| 1787396767 | 36.11° C | 44% | 1058.8 hPa | - | - | - | - |
| 1787395866 | 36.11° C | 46% | 1059.4 hPa | - | - | - | - |
| 1787394966 | 36.11° C | 47% | 1060.4 hPa | - | - | - | - |
| 1787394065 | 37.78° C | 51% | 1068.1 hPa | - | - | - | - |
| 1787393165 | 36.11° C | 53% | 1061.3 hPa | - | - | - | - |
| 1787392280 | 37.78° C | 59% | 1070.8 hPa | - | - | - | - |
| 1787391376 | 37.22° C | 65% | 1070.1 hPa | - | - | - | - |
| 1787390476 | 35° C | 70% | 1061.5 hPa | - | - | - | - |
| 1787389575 | 34.44° C | 75% | 1059.7 hPa | - | - | - | - |
| 1787388675 | 33.89° C | 80% | 1057.6 hPa | - | - | - | - |
| 1787387774 | 31.11° C | 82% | 1045.1 hPa | - | - | - | - |
| 1787386874 | 31.11° C | 86% | 1046.3 hPa | - | - | - | - |
| 1787385973 | 30.56° C | 88% | 1043.9 hPa | - | - | - | - |
* Rain since midnight (hover to see other rain measurements)
** Current wind speed in m/s (hover to see current wind gust speed)